createdAt,value
2022-09-09T00:01:06.413Z,16.40
2022-09-09T00:03:50.310Z,16.40
2022-09-09T00:06:36.604Z,16.40
2022-09-09T00:09:20.667Z,16.40
2022-09-09T00:11:53.613Z,16.40
2022-09-09T00:14:32.327Z,16.30
2022-09-09T00:17:05.689Z,16.30
2022-09-09T00:19:45.362Z,16.30
2022-09-09T00:22:17.671Z,16.30
2022-09-09T00:25:11.219Z,16.30
2022-09-09T00:27:49.371Z,16.20
2022-09-09T00:30:23.165Z,16.20
2022-09-09T00:32:55.057Z,16.20
2022-09-09T00:35:37.447Z,16.20
2022-09-09T00:38:19.401Z,16.20
2022-09-09T00:41:08.591Z,16.10
2022-09-09T00:43:41.415Z,16.00
2022-09-09T00:46:45.525Z,16.00
2022-09-09T00:49:24.250Z,16.00
2022-09-09T00:52:07.387Z,16.00
2022-09-09T00:54:58.359Z,16.00
2022-09-09T00:57:29.692Z,15.90
2022-09-09T01:00:23.065Z,15.80
2022-09-09T01:03:00.434Z,15.80
2022-09-09T01:05:35.994Z,15.80
2022-09-09T01:08:10.128Z,15.80
2022-09-09T01:10:39.567Z,15.70
2022-09-09T01:13:14.702Z,15.60
2022-09-09T01:15:43.605Z,15.70
2022-09-09T01:18:15.374Z,15.60
2022-09-09T01:21:01.135Z,15.70
2022-09-09T01:23:39.430Z,15.60
2022-09-09T01:26:30.533Z,15.60
2022-09-09T01:28:57.387Z,15.60
2022-09-09T01:31:29.708Z,15.60
2022-09-09T01:33:56.350Z,15.60
2022-09-09T01:36:34.664Z,15.60
2022-09-09T01:39:01.563Z,15.60
2022-09-09T01:41:28.473Z,15.60
2022-09-09T01:43:56.431Z,15.70
2022-09-09T01:46:24.494Z,15.60
2022-09-09T01:48:54.780Z,15.60
2022-09-09T01:51:21.507Z,15.60
2022-09-09T01:53:48.807Z,15.60
2022-09-09T01:56:52.874Z,15.50
2022-09-09T01:59:25.361Z,15.50
2022-09-09T02:02:21.642Z,15.50
2022-09-09T02:04:56.788Z,15.50
2022-09-09T02:07:38.960Z,15.50
2022-09-09T02:10:20.335Z,15.50
2022-09-09T02:12:51.785Z,15.50
2022-09-09T02:15:58.748Z,15.50
2022-09-09T02:18:36.106Z,15.40
2022-09-09T02:21:04.256Z,15.40
2022-09-09T02:23:32.839Z,15.40
2022-09-09T02:26:00.544Z,15.40
2022-09-09T02:28:30.974Z,15.40
2022-09-09T02:30:59.612Z,15.30
2022-09-09T02:33:29.524Z,15.30
2022-09-09T02:36:02.679Z,15.30
2022-09-09T02:38:34.264Z,15.30
2022-09-09T02:41:02.801Z,15.30
2022-09-09T02:43:34.167Z,15.40
2022-09-09T02:46:36.317Z,15.40
2022-09-09T02:49:10.464Z,15.40
2022-09-09T02:52:16.570Z,15.40
2022-09-09T02:54:44.378Z,15.40
2022-09-09T02:57:20.070Z,15.30
2022-09-09T02:59:47.881Z,15.30
2022-09-09T03:02:14.606Z,15.30
2022-09-09T03:04:44.048Z,15.30
2022-09-09T03:07:10.999Z,15.20
2022-09-09T03:09:37.673Z,15.30
2022-09-09T03:12:08.082Z,15.20
2022-09-09T03:14:34.840Z,15.30
2022-09-09T03:17:03.277Z,15.20
2022-09-09T03:19:30.945Z,15.20
2022-09-09T03:21:58.005Z,15.20
2022-09-09T03:24:24.929Z,15.20
2022-09-09T03:26:51.694Z,15.20
2022-09-09T03:29:19.409Z,15.10
2022-09-09T03:31:46.203Z,15.10
2022-09-09T03:34:14.715Z,15.10
2022-09-09T03:36:42.153Z,15.10
2022-09-09T03:39:08.768Z,15.10
2022-09-09T03:41:35.412Z,15.10
2022-09-09T03:44:02.153Z,15.10
2022-09-09T03:46:28.799Z,15.10
2022-09-09T03:48:56.176Z,15.20
2022-09-09T03:51:22.997Z,15.10
2022-09-09T03:53:50.040Z,15.20
2022-09-09T03:56:16.696Z,15.20
2022-09-09T03:58:43.470Z,15.20
2022-09-09T04:01:14.839Z,15.20
2022-09-09T04:03:42.026Z,15.30
2022-09-09T04:06:11.288Z,15.40
2022-09-09T04:08:39.446Z,15.40
2022-09-09T04:11:07.228Z,15.40
2022-09-09T04:13:35.547Z,15.50
2022-09-09T04:16:04.703Z,15.40
2022-09-09T04:18:32.391Z,15.50
2022-09-09T04:20:59.453Z,15.50
2022-09-09T04:23:29.799Z,15.40
2022-09-09T04:25:58.314Z,15.30
2022-09-09T04:28:26.643Z,15.30
2022-09-09T04:30:53.336Z,15.40
2022-09-09T04:33:20.500Z,15.40
2022-09-09T04:35:49.444Z,15.40
2022-09-09T04:38:17.332Z,15.30
2022-09-09T04:40:47.465Z,15.30
2022-09-09T04:43:15.600Z,15.30
2022-09-09T04:45:43.382Z,15.20
2022-09-09T04:48:12.907Z,15.20
2022-09-09T04:50:39.848Z,15.20
2022-09-09T04:53:06.586Z,15.10
2022-09-09T04:55:34.711Z,15.10
2022-09-09T04:58:06.341Z,15.10
2022-09-09T05:00:34.753Z,15.10
2022-09-09T05:03:07.161Z,15.10
2022-09-09T05:05:37.574Z,15.10
2022-09-09T05:08:09.486Z,15.10
2022-09-09T05:10:39.097Z,15.20
2022-09-09T05:13:07.415Z,15.20
2022-09-09T05:15:34.192Z,15.20
2022-09-09T05:18:02.183Z,15.20
2022-09-09T05:20:29.227Z,15.10
2022-09-09T05:22:56.437Z,15.10
2022-09-09T05:25:26.863Z,15.20
2022-09-09T05:27:54.668Z,15.20
2022-09-09T05:30:23.649Z,15.30
2022-09-09T05:32:50.328Z,15.30
2022-09-09T05:35:18.816Z,15.30
2022-09-09T05:37:46.937Z,15.30
2022-09-09T05:40:13.876Z,15.30
2022-09-09T05:42:40.916Z,15.30
2022-09-09T05:45:09.551Z,15.40
2022-09-09T05:47:38.191Z,15.50
2022-09-09T05:50:05.785Z,15.60
2022-09-09T05:52:32.849Z,15.50
2022-09-09T05:55:00.223Z,15.50
2022-09-09T05:57:26.979Z,15.60
2022-09-09T05:59:54.570Z,15.70
2022-09-09T06:02:21.386Z,15.70
2022-09-09T06:04:48.228Z,15.70
2022-09-09T06:07:15.532Z,15.70
2022-09-09T06:09:42.443Z,15.70
2022-09-09T06:12:10.006Z,15.70
2022-09-09T06:14:37.777Z,15.80
2022-09-09T06:17:04.601Z,15.80
2022-09-09T06:19:31.866Z,15.80
2022-09-09T06:21:59.632Z,15.90
2022-09-09T06:24:27.173Z,15.90
2022-09-09T06:26:55.001Z,16.10
2022-09-09T06:29:21.725Z,16.10
2022-09-09T06:31:48.649Z,16.20
2022-09-09T06:34:15.790Z,16.30
2022-09-09T06:36:42.543Z,16.40
2022-09-09T06:39:14.660Z,16.40
2022-09-09T06:41:44.953Z,16.40
2022-09-09T06:44:14.384Z,16.40
2022-09-09T06:46:41.352Z,16.40
2022-09-09T06:49:09.962Z,16.40
2022-09-09T06:51:43.436Z,16.40
2022-09-09T06:54:11.300Z,16.40
2022-09-09T06:56:41.436Z,16.40
2022-09-09T06:59:09.529Z,16.50
2022-09-09T07:01:38.926Z,16.60
2022-09-09T07:04:08.566Z,16.60
2022-09-09T07:18:58.754Z,16.60
2022-09-09T07:21:27.450Z,16.30
2022-09-09T07:23:55.455Z,16.30
2022-09-09T07:26:24.116Z,16.30
2022-09-09T07:28:51.058Z,16.40
2022-09-09T07:31:23.058Z,16.40
2022-09-09T07:33:49.938Z,16.50
2022-09-09T07:36:19.659Z,16.60
2022-09-09T07:38:48.483Z,16.70
2022-09-09T07:41:27.493Z,16.90
2022-09-09T07:43:55.101Z,17.10
2022-09-09T07:46:24.407Z,17.20
2022-09-09T07:48:53.701Z,17.30
2022-09-09T07:51:32.993Z,17.40
2022-09-09T07:54:05.481Z,17.50
2022-09-09T07:56:33.704Z,17.50
2022-09-09T07:59:00.901Z,17.50
2022-09-09T08:01:33.828Z,17.60
2022-09-09T08:38:38.920Z,17.60
2022-09-09T08:41:29.076Z,17.80
2022-09-09T13:51:44.178Z,17.70
2022-09-09T13:54:12.165Z,21.00
2022-09-09T13:56:40.153Z,20.50
2022-09-09T13:59:12.631Z,20.50
2022-09-09T14:01:39.349Z,20.30
2022-09-09T14:04:09.742Z,20.30
2022-09-09T14:06:40.272Z,20.30
2022-09-09T14:09:08.390Z,20.20
2022-09-09T14:11:35.028Z,20.20
2022-09-09T14:14:04.498Z,20.10
2022-09-09T14:16:31.224Z,20.10
2022-09-09T14:18:58.058Z,19.90
2022-09-09T14:21:25.179Z,19.70
2022-09-09T14:23:52.103Z,19.60
2022-09-09T14:26:19.922Z,19.70
2022-09-09T14:28:56.002Z,19.70
2022-09-09T14:31:24.327Z,19.60
2022-09-09T14:33:51.923Z,19.70
2022-09-09T14:36:18.724Z,19.60
2022-09-09T14:38:45.525Z,19.70
2022-09-09T14:41:14.198Z,19.70
2022-09-09T14:43:41.423Z,19.50
2022-09-09T14:46:08.176Z,19.40
2022-09-09T14:48:36.069Z,19.40
2022-09-09T14:51:16.641Z,19.40
2022-09-09T14:53:44.688Z,19.40
2022-09-09T14:56:17.065Z,19.20
2022-09-09T14:58:44.758Z,19.10
2022-09-09T15:01:16.935Z,19.10
2022-09-09T15:03:51.587Z,19.20
2022-09-09T15:06:18.362Z,19.10
2022-09-09T15:08:46.496Z,19.20
2022-09-09T15:11:14.802Z,19.20
2022-09-09T15:13:43.510Z,19.30
2022-09-09T15:16:12.617Z,19.30
2022-09-09T15:18:43.586Z,19.60
2022-09-09T15:21:14.756Z,19.90
2022-09-09T15:23:41.394Z,20.10
2022-09-09T15:26:08.091Z,20.00
2022-09-09T15:28:39.186Z,19.80
2022-09-09T15:31:08.649Z,19.60
2022-09-09T15:33:37.674Z,19.60
2022-09-09T15:36:15.581Z,19.70
2022-09-09T15:38:42.758Z,20.00
2022-09-09T15:48:39.548Z,20.20
2022-09-09T15:51:19.440Z,22.60
2022-09-09T15:53:58.169Z,22.30
2022-09-09T15:56:26.576Z,21.90
2022-09-09T15:58:53.833Z,21.50
2022-09-09T16:01:20.576Z,21.00
2022-09-09T16:03:47.993Z,20.60
2022-09-09T16:06:15.995Z,20.40
2022-09-09T16:08:44.440Z,20.00
2022-09-09T16:11:17.185Z,19.90
2022-09-09T16:13:50.439Z,19.70
2022-09-09T16:16:20.290Z,20.10
2022-09-09T16:18:49.255Z,20.80
2022-09-09T16:23:49.202Z,21.70
2022-09-09T16:26:17.267Z,22.90
2022-09-09T16:28:44.670Z,23.60
2022-09-09T16:31:19.454Z,23.80
2022-09-09T16:33:47.259Z,24.00
2022-09-09T16:36:16.459Z,23.30
2022-09-09T16:38:43.711Z,23.20
2022-09-09T16:41:11.788Z,23.20
2022-09-09T16:43:39.214Z,23.10
2022-09-09T16:46:19.186Z,22.40
2022-09-09T16:48:47.838Z,22.30
2022-09-09T16:51:26.540Z,21.80
2022-09-09T16:53:54.453Z,21.50
2022-09-09T16:56:26.035Z,21.50
2022-09-09T16:58:56.173Z,21.60
2022-09-09T17:01:27.857Z,21.40
2022-09-09T17:04:01.153Z,21.00
2022-09-09T17:06:29.988Z,20.90
2022-09-09T17:09:02.304Z,20.70
2022-09-09T17:11:29.956Z,20.20
2022-09-09T17:13:58.975Z,19.90
2022-09-09T17:16:29.063Z,19.60
2022-09-09T17:18:57.385Z,19.30
2022-09-09T17:21:27.234Z,19.00
2022-09-09T17:23:54.970Z,18.90
2022-09-09T17:26:23.898Z,18.70
2022-09-09T17:28:50.488Z,18.50
2022-09-09T17:31:18.745Z,18.30
2022-09-09T17:33:51.199Z,18.20
2022-09-09T17:36:29.569Z,18.10
2022-09-09T17:38:56.335Z,18.00
2022-09-09T17:41:25.507Z,17.90
2022-09-09T17:43:52.426Z,17.70
2022-09-09T17:46:23.366Z,17.70
2022-09-09T17:48:57.598Z,17.60
2022-09-09T17:51:28.909Z,17.50
2022-09-09T17:53:59.255Z,17.50
2022-09-09T17:56:29.186Z,17.30
2022-09-09T17:58:55.874Z,17.20
2022-09-09T18:01:25.010Z,17.10
2022-09-09T18:03:52.094Z,17.00
2022-09-09T18:06:25.015Z,17.00
2022-09-09T18:08:57.325Z,17.00
2022-09-09T18:11:27.217Z,16.90
2022-09-09T18:13:57.370Z,16.80
2022-09-09T18:16:26.383Z,16.80
2022-09-09T18:18:55.725Z,16.70
2022-09-09T18:21:24.242Z,16.70
2022-09-09T18:23:52.164Z,16.60
2022-09-09T18:26:27.400Z,16.60
2022-09-09T18:28:56.629Z,16.60
2022-09-09T18:31:27.032Z,16.60
2022-09-09T18:33:54.714Z,16.50
2022-09-09T18:36:24.578Z,16.50
2022-09-09T18:38:52.149Z,16.40
2022-09-09T18:41:24.672Z,16.40
2022-09-09T18:43:55.330Z,16.30
2022-09-09T18:46:23.377Z,16.30
2022-09-09T18:48:50.935Z,16.20
2022-09-09T18:51:20.644Z,16.20
2022-09-09T18:53:52.705Z,16.20
2022-09-09T18:56:19.618Z,16.10
2022-09-09T18:58:48.461Z,16.20
2022-09-09T19:01:15.809Z,16.10
2022-09-09T19:03:42.802Z,16.00
2022-09-09T19:06:15.220Z,16.10
2022-09-09T19:08:43.824Z,16.10
2022-09-09T19:11:13.404Z,16.00
2022-09-09T19:13:40.373Z,16.00
2022-09-09T19:16:09.887Z,16.10
2022-09-09T19:18:37.043Z,16.10
2022-09-09T19:21:22.645Z,16.00
2022-09-09T19:23:55.341Z,15.90
2022-09-09T19:26:22.612Z,16.00
2022-09-09T19:28:50.175Z,16.00
2022-09-09T19:31:19.109Z,15.90
2022-09-09T19:33:47.521Z,15.90
2022-09-09T19:36:17.733Z,15.90
2022-09-09T19:38:46.158Z,15.80
2022-09-09T19:41:19.561Z,15.80
2022-09-09T19:43:46.970Z,15.70
2022-09-09T19:46:15.503Z,15.70
2022-09-09T19:48:43.053Z,15.60
2022-09-09T19:51:19.018Z,15.60
2022-09-09T19:53:51.325Z,15.50
2022-09-09T19:56:19.844Z,15.50
2022-09-09T19:58:47.813Z,15.60
2022-09-09T20:01:20.657Z,15.40
2022-09-09T20:03:49.908Z,15.40
2022-09-09T20:06:19.271Z,15.20
2022-09-09T20:08:47.887Z,15.20
2022-09-09T20:11:15.841Z,15.20
2022-09-09T20:13:43.319Z,15.10
2022-09-09T20:16:15.225Z,15.00
2022-09-09T20:18:45.270Z,15.00
2022-09-09T20:21:19.901Z,14.90
2022-09-09T20:23:48.111Z,14.90
2022-09-09T20:26:17.522Z,14.80
2022-09-09T20:28:45.056Z,14.80
2022-09-09T20:31:14.744Z,14.80
2022-09-09T20:33:43.111Z,14.70
2022-09-09T20:36:12.401Z,14.60
2022-09-09T20:38:59.596Z,14.50
2022-09-09T20:41:28.984Z,14.50
2022-09-09T20:43:57.960Z,14.50
2022-09-09T20:46:27.403Z,14.60
2022-09-09T20:49:02.655Z,14.60
2022-09-09T20:51:32.828Z,14.70
2022-09-09T20:54:04.803Z,14.60
2022-09-09T20:56:33.881Z,14.70
2022-09-09T20:59:01.449Z,14.70
2022-09-09T21:01:28.106Z,14.70
2022-09-09T21:03:55.448Z,14.70
2022-09-09T21:06:22.705Z,14.80
2022-09-09T21:08:49.505Z,14.80
2022-09-09T21:11:17.445Z,15.00
2022-09-09T21:13:44.832Z,15.00
2022-09-09T21:16:15.027Z,15.00
2022-09-09T21:18:43.635Z,15.00
2022-09-09T21:21:10.360Z,15.00
2022-09-09T21:23:36.957Z,15.10
2022-09-09T21:26:04.404Z,15.10
2022-09-09T21:28:31.477Z,15.20
2022-09-09T21:30:58.289Z,15.20
2022-09-09T21:33:28.114Z,15.30
2022-09-09T21:36:02.712Z,15.30
2022-09-09T21:38:29.512Z,15.30
2022-09-09T21:40:56.121Z,15.30
2022-09-09T21:43:23.508Z,15.40
2022-09-09T21:45:50.785Z,15.40
2022-09-09T21:48:20.802Z,15.30
2022-09-09T21:50:48.287Z,15.10
2022-09-09T21:53:18.868Z,15.00
2022-09-09T21:55:47.602Z,14.80
2022-09-09T21:58:20.577Z,14.60
2022-09-09T22:00:47.679Z,14.50
2022-09-09T22:03:15.575Z,14.40
2022-09-09T22:05:43.845Z,14.20
2022-09-09T22:08:12.413Z,14.10
2022-09-09T22:10:40.699Z,14.00
2022-09-09T22:13:07.803Z,14.00
2022-09-09T22:15:35.002Z,13.90
2022-09-09T22:18:05.667Z,13.80
2022-09-09T22:20:34.042Z,13.80
2022-09-09T22:23:01.678Z,13.70
2022-09-09T22:25:32.566Z,13.70
2022-09-09T22:27:59.144Z,13.70
2022-09-09T22:30:25.737Z,13.60
2022-09-09T22:32:52.308Z,13.60
2022-09-09T22:35:18.917Z,13.60
2022-09-09T22:37:45.666Z,13.50
2022-09-09T22:40:14.002Z,13.40
2022-09-09T22:42:41.777Z,13.40
2022-09-09T22:45:10.006Z,13.40
2022-09-09T22:47:37.613Z,13.30
2022-09-09T22:50:04.634Z,13.30
2022-09-09T22:52:33.868Z,13.30
2022-09-09T22:55:01.038Z,13.30
2022-09-09T22:57:27.757Z,13.20
2022-09-09T22:59:54.384Z,13.10
2022-09-09T23:02:21.661Z,13.10
2022-09-09T23:04:48.558Z,13.10
2022-09-09T23:07:17.646Z,13.00
2022-09-09T23:09:44.230Z,13.00
2022-09-09T23:12:10.942Z,13.00
2022-09-09T23:14:37.636Z,12.90
2022-09-09T23:17:04.274Z,12.90
2022-09-09T23:19:30.962Z,12.90
2022-09-09T23:21:58.202Z,12.90
2022-09-09T23:24:24.853Z,12.90
2022-09-09T23:26:52.869Z,12.90
2022-09-09T23:29:19.607Z,12.90
2022-09-09T23:31:46.538Z,12.90
2022-09-09T23:34:13.412Z,12.80
2022-09-09T23:36:41.284Z,12.70
2022-09-09T23:39:08.780Z,12.70
2022-09-09T23:41:36.502Z,12.60
2022-09-09T23:44:04.742Z,12.60
2022-09-09T23:46:32.566Z,12.60
2022-09-09T23:48:59.928Z,12.50
2022-09-09T23:51:30.580Z,12.50
2022-09-09T23:54:00.408Z,12.40
2022-09-09T23:56:31.652Z,12.50
2022-09-09T23:58:58.716Z,12.40
